Time;durP1;ratioP1;P1;durP2;ratioP2;P2;SDS_P1;SDS_P2;PMS_P1;PMS_P2;Temp;Humidity;BMP_temperature;BMP_pressure;BME280_temperature;BME280_humidity;BME280_pressure;Samples;Min_cycle;Max_cycle;Signal;HPM_P1;HPM_P2
2024/03/02 00:02:01;;;;;;;21.55;11.23;;;;;;;5.60;100.00;97703.34;5059240;28;20031;-76
2024/03/02 00:04:26;;;;;;;21.40;11.15;;;;;;;5.44;100.00;97696.47;5064246;28;20028;-75
2024/03/02 00:06:55;;;;;;;24.75;11.40;;;;;;;5.41;100.00;97715.66;5062737;28;20028;-76
2024/03/02 00:09:20;;;;;;;29.27;12.20;;;;;;;5.31;100.00;97714.34;5068322;28;20046;-76
2024/03/02 00:11:45;;;;;;;24.73;12.18;;;;;;;5.25;100.00;97719.47;5057775;28;20324;-77
2024/03/02 00:14:11;;;;;;;26.63;11.32;;;;;;;5.00;100.00;97688.75;5055623;28;20035;-77
2024/03/02 00:16:37;;;;;;;26.38;13.00;;;;;;;5.17;100.00;97718.78;5063273;28;20020;-77
2024/03/02 00:19:03;;;;;;;25.85;12.57;;;;;;;5.26;100.00;97722.97;5058464;28;20028;-77
2024/03/02 00:21:30;;;;;;;23.63;12.95;;;;;;;5.22;100.00;97727.09;5058434;28;20039;-77
2024/03/02 00:23:56;;;;;;;29.77;12.80;;;;;;;5.23;100.00;97720.69;5056887;28;20024;-77
2024/03/02 00:26:21;;;;;;;24.98;11.93;;;;;;;5.11;100.00;97687.38;5054000;28;20078;-77
2024/03/02 00:28:50;;;;;;;19.75;11.15;;;;;;;5.36;100.00;97715.41;5060487;28;20087;-76
2024/03/02 00:31:15;;;;;;;18.15;8.65;;;;;;;5.24;100.00;97695.53;5065373;28;20084;-77
2024/03/02 00:33:43;;;;;;;24.38;12.18;;;;;;;5.33;100.00;97721.16;5077067;28;20024;-76
2024/03/02 00:36:09;;;;;;;21.75;11.43;;;;;;;5.22;100.00;97694.91;5060284;28;20032;-77
2024/03/02 00:38:45;;;;;;;20.45;10.30;;;;;;;5.35;100.00;97718.31;5069491;28;20037;-76
2024/03/02 00:41:17;;;;;;;20.80;11.00;;;;;;;5.23;100.00;97701.91;5071365;28;20020;-77
2024/03/02 00:43:58;;;;;;;22.50;11.18;;;;;;;5.28;100.00;97729.78;5056000;28;20324;-77
2024/03/02 00:46:24;;;;;;;23.13;11.85;;;;;;;5.25;100.00;97732.06;5049238;28;21432;-76
2024/03/02 00:48:56;;;;;;;22.67;11.05;;;;;;;5.19;100.00;97732.84;5068357;28;20156;-77
2024/03/02 00:51:23;;;;;;;20.02;10.23;;;;;;;5.19;100.00;97738.22;5060076;28;20079;-77
2024/03/02 00:53:49;;;;;;;21.65;10.82;;;;;;;5.16;100.00;97733.22;5050146;28;20021;-76
2024/03/02 00:56:14;;;;;;;17.55;10.07;;;;;;;5.04;100.00;97717.66;5061779;28;20162;-76
2024/03/02 00:58:40;;;;;;;18.30;10.52;;;;;;;5.18;100.00;97717.75;5064030;28;20324;-77
2024/03/02 01:01:06;;;;;;;19.52;10.30;;;;;;;5.19;100.00;97695.31;5076809;28;20027;-77
2024/03/02 01:03:33;;;;;;;21.30;9.40;;;;;;;5.31;100.00;97691.03;5064735;28;20024;-76
2024/03/02 01:05:58;;;;;;;19.17;9.02;;;;;;;5.57;100.00;97708.31;5063779;28;20067;-77
2024/03/02 01:08:24;;;;;;;19.25;9.43;;;;;;;5.65;100.00;97706.28;5065026;28;20024;-77
2024/03/02 01:10:49;;;;;;;18.83;9.38;;;;;;;5.67;100.00;97671.22;5052458;28;20055;-77
2024/03/02 01:13:14;;;;;;;18.35;9.82;;;;;;;5.83;100.00;97688.81;5053741;28;20078;-77
2024/03/02 01:15:39;;;;;;;20.15;9.57;;;;;;;5.75;100.00;97684.44;5066928;28;20052;-76
2024/03/02 01:18:05;;;;;;;20.48;9.75;;;;;;;5.73;100.00;97702.59;5069635;28;20035;-77
2024/03/02 01:20:30;;;;;;;18.33;9.55;;;;;;;5.55;100.00;97691.56;5050504;28;20048;-77
2024/03/02 01:22:55;;;;;;;17.45;9.07;;;;;;;5.37;100.00;97666.13;5059837;28;20320;-77
2024/03/02 01:25:21;;;;;;;18.35;9.18;;;;;;;5.64;100.00;97695.75;5074274;28;20032;-76
2024/03/02 01:27:46;;;;;;;16.88;9.15;;;;;;;5.76;100.00;97707.56;5068247;28;20091;-77
2024/03/02 01:30:11;;;;;;;19.20;9.18;;;;;;;5.72;100.00;97695.59;5064944;28;20029;-77
2024/03/02 01:32:39;;;;;;;18.63;8.50;;;;;;;5.61;100.00;97704.22;5071362;28;20031;-77
2024/03/02 01:35:06;;;;;;;17.77;9.00;;;;;;;5.75;100.00;97697.88;5073181;28;20025;-77
2024/03/02 01:37:32;;;;;;;13.52;7.63;;;;;;;5.80;100.00;97662.38;5070245;28;20048;-77
2024/03/02 01:39:58;;;;;;;16.20;7.93;;;;;;;5.80;100.00;97648.97;5072283;28;20074;-77
2024/03/02 01:42:23;;;;;;;20.08;8.93;;;;;;;5.98;100.00;97678.78;5064512;28;20096;-77
2024/03/02 01:44:48;;;;;;;15.90;8.45;;;;;;;5.96;100.00;97664.72;5059575;28;20029;-78
2024/03/02 01:47:13;;;;;;;17.85;8.35;;;;;;;5.95;100.00;97664.91;5042661;28;20021;-77
2024/03/02 01:49:40;;;;;;;15.48;8.02;;;;;;;5.92;100.00;97668.81;5048625;28;20025;-77
2024/03/02 01:52:06;;;;;;;14.60;8.05;;;;;;;6.00;100.00;97679.44;5064533;28;20029;-76
2024/03/02 01:54:31;;;;;;;16.05;8.10;;;;;;;5.87;100.00;97666.75;5065021;28;20139;-77
2024/03/02 01:56:57;;;;;;;15.98;8.02;;;;;;;5.88;100.00;97673.75;5068448;28;20082;-76
2024/03/02 01:59:22;;;;;;;16.40;7.50;;;;;;;5.71;100.00;97661.72;5065869;28;20060;-77
2024/03/02 02:01:47;;;;;;;15.63;8.07;;;;;;;5.78;100.00;97667.13;5057058;28;20079;-77
2024/03/02 02:04:13;;;;;;;15.70;7.70;;;;;;;5.84;100.00;97656.41;5060337;28;20224;-77
2024/03/02 02:06:38;;;;;;;18.73;8.30;;;;;;;5.96;100.00;97661.22;5044140;28;20100;-77
2024/03/02 02:09:04;;;;;;;14.50;7.65;;;;;;;5.96;100.00;97663.91;5068113;28;20028;-77
2024/03/02 02:11:29;;;;;;;18.08;8.55;;;;;;;5.96;100.00;97653.19;5055674;28;20032;-77
2024/03/02 02:13:55;;;;;;;14.40;7.57;;;;;;;6.01;100.00;97661.44;5060801;28;20023;-77
2024/03/02 02:16:21;;;;;;;14.98;8.25;;;;;;;5.99;100.00;97677.75;5065139;28;20047;-77
2024/03/02 02:18:46;;;;;;;19.00;8.52;;;;;;;5.66;100.00;97632.00;5061042;28;20025;-77
2024/03/02 02:21:12;;;;;;;17.63;8.10;;;;;;;5.75;100.00;97651.41;5046468;28;20040;-77
2024/03/02 02:23:37;;;;;;;19.33;8.50;;;;;;;5.71;100.00;97645.59;5056301;28;20088;-77
2024/03/02 02:26:03;;;;;;;19.25;9.25;;;;;;;5.70;100.00;97639.41;5063294;28;20028;-77
2024/03/02 02:28:29;;;;;;;15.82;7.90;;;;;;;5.82;100.00;97653.09;5063191;28;20204;-77
2024/03/02 02:30:56;;;;;;;15.55;8.15;;;;;;;5.90;100.00;97660.97;5058656;28;20027;-77
2024/03/02 02:33:21;;;;;;;15.85;8.05;;;;;;;5.80;100.00;97649.78;5058833;28;20070;-77
2024/03/02 02:35:46;;;;;;;18.42;7.78;;;;;;;5.73;100.00;97648.94;5056172;28;20029;-77
2024/03/02 02:38:12;;;;;;;18.10;9.52;;;;;;;5.58;100.00;97641.03;5061151;28;20031;-77
2024/03/02 02:40:37;;;;;;;18.52;8.65;;;;;;;5.43;100.00;97643.84;5053929;28;20032;-78
2024/03/02 02:43:02;;;;;;;19.45;9.60;;;;;;;5.36;100.00;97652.91;5052898;28;20211;-77
2024/03/02 02:45:28;;;;;;;16.70;9.35;;;;;;;5.10;100.00;97629.44;5054399;28;20546;-77
2024/03/02 02:47:54;;;;;;;18.55;9.55;;;;;;;5.25;100.00;97648.91;5064137;28;20020;-77
2024/03/02 02:50:19;;;;;;;20.55;10.63;;;;;;;5.12;100.00;97636.25;5062754;28;20024;-77
2024/03/02 02:52:44;;;;;;;21.10;10.73;;;;;;;5.13;100.00;97635.22;5057079;28;20099;-78
2024/03/02 02:55:11;;;;;;;20.52;9.93;;;;;;;5.19;100.00;97647.88;5044744;28;20033;-77
2024/03/02 02:57:38;;;;;;;18.35;9.60;;;;;;;5.07;100.00;97632.53;5063679;28;20021;-77
2024/03/02 03:00:10;;;;;;;22.83;10.02;;;;;;;5.18;100.00;97653.41;5061754;28;20017;-77
2024/03/02 03:02:37;;;;;;;22.77;10.23;;;;;;;5.06;100.00;97650.47;5061919;28;20089;-77
2024/03/02 03:05:02;;;;;;;22.23;11.05;;;;;;;4.99;100.00;97646.91;5063688;28;20029;-77
2024/03/02 03:07:28;;;;;;;21.17;9.93;;;;;;;4.91;100.00;97644.38;5047810;28;20092;-77
2024/03/02 03:09:53;;;;;;;23.67;10.57;;;;;;;4.97;100.00;97646.28;5052846;28;20029;-78
2024/03/02 03:12:18;;;;;;;21.52;10.35;;;;;;;4.98;100.00;97651.44;5061703;28;20029;-78
2024/03/02 03:14:43;;;;;;;22.70;10.45;;;;;;;4.91;100.00;97647.88;5054097;28;20071;-77
2024/03/02 03:17:09;;;;;;;22.08;10.13;;;;;;;4.99;100.00;97653.09;5060530;28;20024;-78
2024/03/02 03:19:34;;;;;;;22.00;10.50;;;;;;;4.91;100.00;97655.09;5054554;28;20028;-77
2024/03/02 03:21:59;;;;;;;24.83;9.95;;;;;;;4.88;100.00;97642.09;5064608;28;20048;-77
2024/03/02 03:24:24;;;;;;;18.80;9.88;;;;;;;4.95;100.00;97657.19;5048692;28;20029;-77
2024/03/02 03:26:50;;;;;;;25.23;10.90;;;;;;;4.88;100.00;97667.03;5046195;28;20280;-78
2024/03/02 03:29:15;;;;;;;22.55;9.88;;;;;;;4.88;100.00;97668.91;5063913;28;20029;-78
2024/03/02 03:31:40;;;;;;;23.88;10.90;;;;;;;4.72;100.00;97656.63;5055647;28;20143;-77
2024/03/02 03:34:05;;;;;;;18.60;9.63;;;;;;;4.70;100.00;97664.84;5044083;28;20029;-77
2024/03/02 03:36:31;;;;;;;21.20;11.13;;;;;;;4.72;100.00;97676.19;5063213;28;20033;-77
2024/03/02 03:38:57;;;;;;;24.08;11.30;;;;;;;4.64;100.00;97662.09;5065100;28;20048;-77
2024/03/02 03:41:22;;;;;;;23.65;10.70;;;;;;;4.57;100.00;97676.25;5039086;28;20029;-77
2024/03/02 03:43:48;;;;;;;24.67;10.88;;;;;;;4.50;100.00;97663.84;5063370;28;20425;-77
2024/03/02 03:46:13;;;;;;;24.40;11.48;;;;;;;4.51;100.00;97660.16;5065405;28;20088;-77
2024/03/02 03:48:38;;;;;;;19.52;10.35;;;;;;;4.59;100.00;97684.94;5057032;28;20046;-77
2024/03/02 03:51:04;;;;;;;19.70;9.98;;;;;;;4.34;100.00;97665.75;5059776;28;20025;-77
2024/03/02 03:53:29;;;;;;;24.02;10.55;;;;;;;4.07;100.00;97648.63;5061690;28;20048;-77
2024/03/02 03:55:54;;;;;;;23.13;10.43;;;;;;;3.96;100.00;97651.81;5065546;28;20063;-77
2024/03/02 03:58:20;;;;;;;24.77;10.90;;;;;;;3.93;100.00;97676.25;5045344;28;20028;-77
2024/03/02 04:00:46;;;;;;;23.38;10.45;;;;;;;3.85;100.00;97671.00;5042423;28;20060;-77
2024/03/02 04:03:11;;;;;;;27.40;11.13;;;;;;;3.92;100.00;97664.72;5066913;28;20024;-77
2024/03/02 04:05:36;;;;;;;25.20;12.02;;;;;;;4.10;100.00;97664.28;5060532;28;20025;-77
2024/03/02 04:08:01;;;;;;;23.13;11.40;;;;;;;4.07;100.00;97651.28;5051667;28;21003;-77
2024/03/02 04:10:27;;;;;;;26.00;11.27;;;;;;;4.29;100.00;97681.56;5043806;28;20351;-77
2024/03/02 04:12:52;;;;;;;21.08;10.60;;;;;;;4.20;100.00;97673.88;5039318;28;20025;-78
2024/03/02 04:15:18;;;;;;;23.77;11.73;;;;;;;4.32;100.00;97677.69;5060190;28;20021;-78
2024/03/02 04:17:44;;;;;;;26.85;11.63;;;;;;;4.26;100.00;97678.44;5066373;28;20016;-77
2024/03/02 04:20:09;;;;;;;19.75;9.70;;;;;;;4.12;100.00;97666.78;5043245;28;20374;-77
2024/03/02 04:22:35;;;;;;;25.08;10.50;;;;;;;4.12;100.00;97680.16;5050316;28;20243;-77
2024/03/02 04:25:01;;;;;;;27.60;10.80;;;;;;;4.16;100.00;97678.75;5065045;28;20088;-77
2024/03/02 04:27:27;;;;;;;28.95;11.98;;;;;;;4.10;100.00;97682.19;5059249;28;20049;-77
2024/03/02 04:29:52;;;;;;;26.77;11.55;;;;;;;3.95;100.00;97650.94;5060596;28;20021;-77
2024/03/02 04:32:19;;;;;;;28.13;12.85;;;;;;;4.20;100.00;97684.56;5056300;28;20044;-77
2024/03/02 04:34:44;;;;;;;26.83;11.40;;;;;;;4.22;100.00;97664.63;5063005;28;20135;-78
2024/03/02 04:37:12;;;;;;;28.08;11.45;;;;;;;4.32;100.00;97678.53;5058549;28;20035;-77
2024/03/02 04:39:37;;;;;;;29.10;11.32;;;;;;;4.43;100.00;97685.22;5043645;28;20012;-77
2024/03/02 04:42:03;;;;;;;27.85;12.05;;;;;;;4.29;100.00;97662.00;5046411;28;20055;-78
2024/03/02 04:44:28;;;;;;;27.20;10.85;;;;;;;4.39;100.00;97681.25;5053832;22;20042;-61
2024/03/02 04:46:54;;;;;;;23.70;11.32;;;;;;;4.39;100.00;97678.56;5027076;28;20108;-61
2024/03/02 04:49:19;;;;;;;26.35;11.45;;;;;;;4.36;100.00;97673.59;5028147;28;20385;-61
2024/03/02 04:51:45;;;;;;;28.05;12.25;;;;;;;4.32;100.00;97678.53;5030970;28;20025;-61
2024/03/02 04:54:10;;;;;;;28.70;11.60;;;;;;;4.26;100.00;97679.28;5019903;28;20084;-61
2024/03/02 04:56:49;;;;;;;26.33;12.32;;;;;;;4.18;100.00;97676.72;5034492;28;20124;-60
2024/03/02 04:59:14;;;;;;;25.88;11.23;;;;;;;4.20;100.00;97682.72;5034060;28;20021;-61
2024/03/02 05:01:39;;;;;;;27.17;12.32;;;;;;;4.20;100.00;97682.72;5035215;28;20397;-59
2024/03/02 05:04:05;;;;;;;30.42;12.60;;;;;;;4.11;100.00;97689.19;5027717;28;20018;-60
2024/03/02 05:06:30;;;;;;;29.02;12.18;;;;;;;4.05;100.00;97695.31;5025692;28;20241;-60
2024/03/02 05:08:56;;;;;;;29.48;12.48;;;;;;;4.09;100.00;97688.59;5025720;28;20033;-60
2024/03/02 05:14:08;;;;;;;30.23;12.20;;;;;;;4.16;100.00;97684.94;4985437;28;20041;-60
2024/03/02 05:16:35;;;;;;;26.20;12.00;;;;;;;4.04;100.00;97675.75;5024272;28;20029;-59
2024/03/02 05:19:00;;;;;;;24.15;10.52;;;;;;;3.63;100.00;97630.84;5095560;22;20251;-83
2024/03/02 05:21:25;;;;;;;23.85;11.52;;;;;;;3.88;100.00;97681.34;5071852;28;20032;-80
2024/03/02 05:23:51;;;;;;;23.77;11.35;;;;;;;3.34;100.00;97604.16;5071922;28;20039;-80
2024/03/02 05:26:16;;;;;;;31.05;12.60;;;;;;;3.62;100.00;97644.41;5070656;28;20327;-80
2024/03/02 05:28:42;;;;;;;28.42;11.32;;;;;;;3.27;100.00;97598.72;5064832;28;20028;-81
2024/03/02 05:31:10;;;;;;;25.08;11.57;;;;;;;3.81;100.00;97694.63;5067201;28;20044;-81
2024/03/02 05:33:37;;;;;;;27.70;11.03;;;;;;;3.48;100.00;97638.06;5072904;28;20078;-81
2024/03/02 05:36:03;;;;;;;29.35;12.82;;;;;;;3.71;100.00;97678.06;5091342;28;20024;-80
2024/03/02 05:38:28;;;;;;;26.05;11.25;;;;;;;3.36;100.00;97612.84;5067925;28;20159;-78
2024/03/02 05:40:55;;;;;;;25.92;11.73;;;;;;;3.07;100.00;97575.25;5085693;28;20028;-78
2024/03/02 05:43:39;;;;;;;28.88;11.90;;;;;;;3.29;100.00;97608.22;5064304;28;20017;-87
2024/03/02 05:46:05;;;;;;;29.10;11.70;;;;;;;3.59;100.00;97650.13;5069592;28;20055;-89
2024/03/02 05:48:31;;;;;;;33.42;12.82;;;;;;;3.98;100.00;97697.91;5049539;22;20045;-52
2024/03/02 05:50:56;;;;;;;36.92;12.82;;;;;;;4.04;100.00;97699.84;5047301;28;20463;-52
2024/03/02 05:53:32;;;;;;;30.33;12.50;;;;;;;4.08;100.00;97695.75;5053697;28;20382;-51
2024/03/02 05:55:57;;;;;;;30.77;13.20;;;;;;;4.10;100.00;97691.06;5046194;28;20123;-52
2024/03/02 06:01:07;;;;;;;25.77;12.27;;;;;;;4.31;100.00;97692.09;5043288;28;20031;-52
2024/03/02 06:03:32;;;;;;;26.98;12.38;;;;;;;4.31;100.00;97695.59;5021526;28;20025;-52
2024/03/02 06:05:59;;;;;;;26.85;12.13;;;;;;;4.26;100.00;97691.84;5045767;28;20025;-52
2024/03/02 06:08:25;;;;;;;28.67;11.52;;;;;;;4.35;100.00;97701.41;5036268;28;20461;-52
2024/03/02 06:10:50;;;;;;;24.08;11.00;;;;;;;4.41;100.00;97699.81;5042072;28;20094;-52
2024/03/02 06:13:16;;;;;;;23.23;11.02;;;;;;;4.44;100.00;97694.91;5033045;28;20397;-51
2024/03/02 06:15:41;;;;;;;23.17;11.18;;;;;;;4.52;100.00;97700.13;5035160;28;20033;-51
2024/03/02 06:18:07;;;;;;;24.73;10.88;;;;;;;4.58;100.00;97698.53;5040933;28;20025;-51
2024/03/02 06:20:33;;;;;;;25.73;10.80;;;;;;;4.66;100.00;97697.56;5031774;28;20033;-52
2024/03/02 06:22:58;;;;;;;23.23;10.60;;;;;;;4.70;100.00;97696.16;5035181;28;20128;-51
2024/03/02 06:25:24;;;;;;;27.52;10.25;;;;;;;4.69;100.00;97703.38;5036380;28;20033;-52
2024/03/02 06:27:49;;;;;;;25.15;10.75;;;;;;;4.70;100.00;97698.84;5047682;28;20033;-51
2024/03/02 06:30:15;;;;;;;27.38;12.15;;;;;;;4.59;100.00;97692.97;5037172;28;20103;-52
2024/03/02 06:32:41;;;;;;;26.38;12.68;;;;;;;4.53;100.00;97695.59;5037421;28;20060;-52
2024/03/02 06:35:09;;;;;;;25.35;11.20;;;;;;;4.41;100.00;97697.97;5030460;28;20022;-52
2024/03/02 06:37:36;;;;;;;24.15;10.82;;;;;;;4.37;100.00;97699.34;5026354;28;21219;-52
2024/03/02 06:40:02;;;;;;;26.60;11.57;;;;;;;4.24;100.00;97699.22;5028782;28;20040;-60
2024/03/02 06:42:32;;;;;;;23.55;11.27;;;;;;;4.11;100.00;97698.09;5031941;28;20029;-54
2024/03/02 06:44:58;;;;;;;26.17;11.55;;;;;;;4.06;100.00;97697.81;5033348;28;20025;-55
2024/03/02 06:47:23;;;;;;;22.27;9.75;;;;;;;4.15;100.00;97703.88;5027940;28;20492;-54
2024/03/02 06:49:49;;;;;;;21.70;10.10;;;;;;;4.25;100.00;97695.53;5030078;28;20060;-54
2024/03/02 06:52:14;;;;;;;22.95;10.35;;;;;;;4.32;100.00;97699.94;5030073;28;20056;-54
2024/03/02 06:54:39;;;;;;;24.35;9.90;;;;;;;4.54;100.00;97707.97;5032782;28;20037;-54
2024/03/02 06:57:05;;;;;;;21.05;9.80;;;;;;;4.66;100.00;97700.22;5026936;28;20025;-54
2024/03/02 06:59:30;;;;;;;17.85;8.85;;;;;;;4.75;100.00;97702.59;5031104;28;20030;-54
2024/03/02 07:01:56;;;;;;;18.73;8.82;;;;;;;5.03;100.00;97704.44;5027888;28;20084;-55
2024/03/02 07:04:22;;;;;;;16.48;8.88;;;;;;;5.28;100.00;97700.28;5027325;28;20042;-54
2024/03/02 07:06:47;;;;;;;16.27;8.35;;;;;;;5.49;100.00;97693.19;5026164;28;20025;-54
2024/03/02 07:09:13;;;;;;;18.50;8.35;;;;;;;5.83;100.00;97695.00;5011307;28;20112;-54
2024/03/02 07:11:38;;;;;;;16.40;8.70;;;;;;;6.03;100.00;97691.63;5028757;28;20381;-54
2024/03/02 07:14:03;;;;;;;16.85;8.35;;;;;;;5.83;100.00;97691.50;5029210;28;20040;-54
2024/03/02 07:16:32;;;;;;;19.27;9.13;;;;;;;5.45;100.00;97692.78;5029999;28;20037;-54
2024/03/02 07:18:58;;;;;;;18.00;9.43;;;;;;;5.39;100.00;97680.13;5028563;28;20388;-53
2024/03/02 07:21:24;;;;;;;20.67;10.07;;;;;;;5.46;100.00;97691.75;5031770;28;20022;-55
2024/03/02 07:23:50;;;;;;;22.67;9.55;;;;;;;5.68;100.00;97688.94;5020634;28;20083;-55
2024/03/02 07:26:18;;;;;;;18.25;9.15;;;;;;;5.98;100.00;97681.47;5018271;28;20041;-54
2024/03/02 07:28:47;;;;;;;19.25;9.55;;;;;;;6.42;100.00;97684.66;5015816;28;20074;-55
2024/03/02 07:31:13;;;;;;;18.10;9.68;;;;;;;6.61;100.00;97680.38;5015372;28;20026;-54
2024/03/02 07:33:39;;;;;;;22.73;9.95;;;;;;;7.06;100.00;97688.63;5020606;28;20018;-55
2024/03/02 07:36:05;;;;;;;17.10;8.50;;;;;;;7.41;100.00;97675.72;5033190;28;20488;-55
2024/03/02 07:38:31;;;;;;;16.40;8.98;;;;;;;8.00;100.00;97682.78;5028004;28;20059;-55
2024/03/02 07:40:57;;;;;;;14.82;7.95;;;;;;;8.78;100.00;97671.75;5040006;28;20037;-55
2024/03/02 07:43:23;;;;;;;15.32;8.50;;;;;;;8.79;100.00;97656.38;5031412;28;20495;-55
2024/03/02 07:45:48;;;;;;;18.23;8.38;;;;;;;8.56;100.00;97684.75;5034508;28;20032;-54
2024/03/02 07:48:14;;;;;;;15.05;8.23;;;;;;;8.72;100.00;97679.88;5041274;28;20529;-55
2024/03/02 07:50:41;;;;;;;17.45;7.97;;;;;;;8.81;100.00;97683.97;5026630;28;20033;-54
2024/03/02 07:53:10;;;;;;;15.63;8.65;;;;;;;8.59;100.00;97677.28;5034697;28;20021;-55
2024/03/02 07:55:35;;;;;;;14.48;7.70;;;;;;;9.02;100.00;97684.63;5035964;28;20033;-55
2024/03/02 07:58:01;;;;;;;18.02;8.35;;;;;;;9.31;100.00;97678.53;5041479;28;20037;-55
2024/03/02 08:00:27;;;;;;;21.70;8.38;;;;;;;8.86;100.00;97680.63;5027397;28;20021;-55
2024/03/02 08:02:53;;;;;;;17.50;7.47;;;;;;;8.41;100.00;97695.03;5031934;28;20029;-55
2024/03/02 08:05:20;;;;;;;15.77;8.43;;;;;;;8.38;100.00;97690.03;5034489;28;20461;-55
2024/03/02 08:07:47;;;;;;;15.98;8.40;;;;;;;8.28;100.00;97687.00;5037824;28;20030;-55
2024/03/02 08:10:13;;;;;;;18.48;8.05;;;;;;;8.30;100.00;97695.66;5035711;28;20025;-55
2024/03/02 08:12:39;;;;;;;15.45;7.80;;;;;;;8.49;100.00;97685.88;5027606;28;20108;-55
2024/03/02 08:15:05;;;;;;;17.45;9.63;;;;;;;8.81;100.00;97685.84;5038392;28;20021;-53
2024/03/02 08:17:30;;;;;;;16.23;9.00;;;;;;;9.49;100.00;97685.84;5030324;28;20393;-53
2024/03/02 08:19:56;;;;;;;14.80;8.90;;;;;;;9.70;100.00;97681.88;5029278;28;20029;-54
2024/03/02 08:22:22;;;;;;;17.77;8.70;;;;;;;9.72;100.00;97678.94;5042025;28;20029;-58
2024/03/02 08:24:48;;;;;;;18.13;8.63;;;;;;;9.87;100.00;97671.25;5038920;28;20033;-58
2024/03/02 08:27:14;;;;;;;19.50;10.10;;;;;;;9.92;100.00;97667.88;5039654;28;20016;-56
2024/03/02 08:29:41;;;;;;;25.13;11.10;;;;;;;9.95;100.00;97676.34;5019517;28;20416;-56
2024/03/02 08:32:07;;;;;;;26.10;11.57;;;;;;;9.63;100.00;97670.31;5036183;28;20362;-57
2024/03/02 08:34:33;;;;;;;20.10;10.05;;;;;;;9.85;100.00;97676.91;5044898;28;20052;-57
2024/03/02 08:36:59;;;;;;;22.83;10.05;;;;;;;10.03;100.00;97667.13;5040373;28;20095;-56
2024/03/02 08:39:30;;;;;;;21.45;9.10;;;;;;;10.71;100.00;97683.03;5037070;28;20037;-56
2024/03/02 08:41:56;;;;;;;14.23;7.63;;;;;;;10.95;100.00;97678.50;5036557;28;20101;-57
2024/03/02 08:44:21;;;;;;;14.10;7.20;;;;;;;10.80;100.00;97680.81;5029171;28;20030;-57
2024/03/02 08:46:47;;;;;;;14.25;6.82;;;;;;;11.26;100.00;97668.38;5037250;28;20132;-57
2024/03/02 08:49:13;;;;;;;10.32;6.53;;;;;;;11.31;100.00;97673.91;5029615;28;20493;-57
2024/03/02 08:51:38;;;;;;;13.05;6.78;;;;;;;11.79;100.00;97669.28;5031661;28;20025;-55
2024/03/02 08:54:04;;;;;;;16.38;6.95;;;;;;;12.37;100.00;97657.44;5044180;28;20098;-57
2024/03/02 08:56:31;;;;;;;9.75;5.30;;;;;;;13.75;100.00;97662.38;5042996;28;20032;-53
2024/03/02 08:58:56;;;;;;;13.00;6.55;;;;;;;15.06;100.00;97663.25;5041098;28;20088;-49
2024/03/02 09:01:22;;;;;;;37.15;15.07;;;;;;;16.40;100.00;97653.84;5049083;28;20041;-49
2024/03/02 09:03:53;;;;;;;27.10;13.52;;;;;;;18.13;88.04;97660.31;5045350;28;20021;-49
2024/03/02 09:06:20;;;;;;;25.65;13.10;;;;;;;18.47;80.00;97654.97;5045320;28;20057;-54
2024/03/02 09:08:45;;;;;;;17.60;9.57;;;;;;;18.48;76.80;97651.13;5040479;28;20040;-55
2024/03/02 09:11:11;;;;;;;12.15;6.85;;;;;;;20.32;67.26;97651.34;5040168;28;20041;-55
2024/03/02 09:13:38;;;;;;;8.10;5.13;;;;;;;22.76;58.64;97642.59;5040927;28;20033;-57
2024/03/02 09:16:04;;;;;;;7.10;4.75;;;;;;;25.42;52.00;97636.25;5036616;28;20017;-54
2024/03/02 09:18:31;;;;;;;6.97;4.05;;;;;;;26.83;45.19;97639.66;5049592;28;20028;-55
2024/03/02 09:20:56;;;;;;;7.10;4.72;;;;;;;24.84;48.78;97649.47;5043336;28;20025;-55
2024/03/02 09:23:22;;;;;;;6.93;4.65;;;;;;;25.17;46.69;97647.03;5037543;28;20087;-54
2024/03/02 09:25:47;;;;;;;7.68;4.20;;;;;;;25.41;45.59;97638.19;5039143;28;20079;-54
2024/03/02 09:28:15;;;;;;;6.05;3.78;;;;;;;26.44;44.04;97632.56;5044417;28;20107;-55
2024/03/02 09:30:40;;;;;;;4.75;3.60;;;;;;;24.79;46.19;97638.56;5038967;28;20168;-55
2024/03/02 09:33:06;;;;;;;4.43;3.22;;;;;;;23.73;46.77;97633.88;5040009;28;20025;-55
2024/03/02 09:35:32;;;;;;;4.47;3.03;;;;;;;24.42;45.96;97626.94;5035615;28;20075;-55
2024/03/02 09:37:58;;;;;;;4.85;3.00;;;;;;;23.95;46.36;97633.00;5041889;28;20028;-55
2024/03/02 09:40:24;;;;;;;4.60;2.67;;;;;;;24.03;46.89;97632.22;5035781;28;20022;-55
2024/03/02 09:42:52;;;;;;;4.03;2.92;;;;;;;23.72;46.67;97629.47;5032301;28;20041;-55
2024/03/02 09:45:27;;;;;;;5.82;2.70;;;;;;;24.67;45.21;97623.41;5044504;28;20029;-55
2024/03/02 09:47:52;;;;;;;5.55;3.17;;;;;;;24.41;46.23;97628.06;5046083;28;20391;-55
2024/03/02 09:50:18;;;;;;;4.47;2.30;;;;;;;24.50;43.23;97623.41;5037427;28;20100;-55
2024/03/02 09:52:43;;;;;;;3.42;2.47;;;;;;;24.63;43.86;97610.56;5033728;28;20037;-55
2024/03/02 09:55:09;;;;;;;4.22;2.50;;;;;;;25.41;41.94;97621.56;5027288;28;20028;-56
2024/03/02 09:57:35;;;;;;;3.88;2.42;;;;;;;24.48;42.11;97622.91;5033941;28;20029;-56
2024/03/02 10:00:00;;;;;;;3.72;2.10;;;;;;;24.81;41.83;97626.03;5042831;28;20020;-55
2024/03/02 10:02:26;;;;;;;3.60;2.08;;;;;;;23.90;43.07;97626.81;5038550;28;20560;-55
2024/03/02 10:04:51;;;;;;;3.88;2.58;;;;;;;24.17;43.34;97628.50;5031593;28;20028;-55
2024/03/02 10:07:18;;;;;;;4.10;3.10;;;;;;;23.54;44.53;97622.22;5041305;28;20420;-55
2024/03/02 10:09:46;;;;;;;3.83;2.72;;;;;;;24.92;43.44;97624.56;5038888;28;20029;-55
2024/03/02 10:12:13;;;;;;;4.05;2.75;;;;;;;25.85;43.02;97619.50;5043060;28;20353;-58
2024/03/02 10:14:39;;;;;;;3.63;2.60;;;;;;;25.31;42.84;97608.09;5028384;28;20603;-59
2024/03/02 10:17:12;;;;;;;6.00;3.45;;;;;;;23.44;44.41;97616.97;5031952;28;20037;-59
2024/03/02 10:19:39;;;;;;;5.28;3.38;;;;;;;22.47;46.69;97617.34;5035236;28;20137;-59
2024/03/02 10:22:06;;;;;;;4.50;3.05;;;;;;;23.24;45.35;97608.09;5042568;28;20096;-59
2024/03/02 10:24:39;;;;;;;4.60;2.80;;;;;;;23.40;46.16;97612.09;5018675;28;20549;-59
2024/03/02 10:27:16;;;;;;;3.83;2.90;;;;;;;24.63;44.08;97605.03;5038809;28;20037;-59
2024/03/02 10:29:43;;;;;;;4.10;2.80;;;;;;;24.83;42.98;97600.78;5035717;28;20048;-59
2024/03/02 10:32:11;;;;;;;6.53;2.58;;;;;;;25.23;42.47;97597.84;5038369;28;20072;-60
2024/03/02 10:34:37;;;;;;;4.47;2.80;;;;;;;25.44;42.23;97595.19;5043897;28;20055;-59
2024/03/02 10:37:03;;;;;;;3.88;2.33;;;;;;;25.62;41.59;97599.50;5031210;28;20461;-60
2024/03/02 10:39:29;;;;;;;3.58;2.30;;;;;;;26.47;40.61;97589.50;5037605;28;20056;-60
2024/03/02 10:41:56;;;;;;;4.07;2.22;;;;;;;25.30;41.44;97592.63;5035999;28;20031;-60
2024/03/02 10:44:22;;;;;;;3.92;2.15;;;;;;;24.50;41.64;97590.22;5039948;28;20033;-59
2024/03/02 10:46:50;;;;;;;3.03;2.00;;;;;;;24.36;41.64;97587.56;5032637;28;20034;-59
2024/03/02 10:49:15;;;;;;;3.38;1.63;;;;;;;25.95;39.83;97580.34;5034374;28;20022;-58
2024/03/02 10:51:42;;;;;;;2.78;2.00;;;;;;;26.38;40.20;97570.94;5043198;28;20025;-58
2024/03/02 10:54:07;;;;;;;2.88;2.00;;;;;;;27.76;38.76;97573.53;5035298;28;20428;-59
2024/03/02 10:56:40;;;;;;;2.78;1.65;;;;;;;27.29;38.37;97565.59;5042116;28;20052;-58
2024/03/02 10:59:24;;;;;;;2.05;1.55;;;;;;;27.34;37.60;97559.00;5036039;28;20029;-58
2024/03/02 11:01:50;;;;;;;2.83;1.63;;;;;;;26.48;38.40;97557.81;5032396;28;20029;-58
2024/03/02 11:04:18;;;;;;;2.55;1.70;;;;;;;26.74;38.86;97550.13;5031420;28;20096;-58
2024/03/02 11:06:48;;;;;;;3.05;1.88;;;;;;;24.83;41.85;97551.81;5038148;28;20036;-57
2024/03/02 11:09:14;;;;;;;3.08;1.92;;;;;;;26.87;39.50;97532.34;5035322;28;20045;-57
2024/03/02 11:11:42;;;;;;;2.80;1.70;;;;;;;26.99;38.93;97550.22;5040482;28;20071;-57
2024/03/02 11:14:13;;;;;;;3.30;1.60;;;;;;;26.42;39.17;97549.69;5035944;28;20108;-57
2024/03/02 11:16:41;;;;;;;2.63;1.65;;;;;;;27.23;38.08;97544.75;5035806;28;20037;-57
2024/03/02 11:19:09;;;;;;;2.50;1.50;;;;;;;26.46;37.80;97538.72;5059169;22;20040;-75
2024/03/02 11:21:35;;;;;;;3.35;1.27;;;;;;;27.55;37.99;97539.50;5062177;28;20070;-75
2024/03/02 11:24:21;;;;;;;1.88;1.20;;;;;;;28.54;36.40;97535.50;5060055;28;20028;-75